createdAt,value
2016-04-28T00:00:07.775Z,15.47
2016-04-28T00:01:07.778Z,15.67
2016-04-28T00:02:07.764Z,15.82
2016-04-28T00:03:07.735Z,15.86
2016-04-28T00:04:07.724Z,15.86
2016-04-28T00:05:07.711Z,15.91
2016-04-28T00:06:07.682Z,15.86
2016-04-28T00:07:07.668Z,15.37
2016-04-28T00:08:07.672Z,15.54
2016-04-28T00:09:07.627Z,15.29
2016-04-28T00:10:07.629Z,15.46
2016-04-28T00:11:08.413Z,15.62
2016-04-28T00:12:07.573Z,15.7
2016-04-28T00:13:07.560Z,15.82
2016-04-28T00:14:07.563Z,15.67
2016-04-28T00:15:07.378Z,15.59
2016-04-28T00:16:07.505Z,15.73
2016-04-28T00:17:07.493Z,15.79
2016-04-28T00:18:07.479Z,15.72
2016-04-28T00:19:07.482Z,15.57
2016-04-28T00:20:10.422Z,15.62
2016-04-28T00:21:07.425Z,15.67
2016-04-28T00:22:07.428Z,15.61
2016-04-28T00:23:07.400Z,15.61
2016-04-28T00:24:07.370Z,15.8
2016-04-28T00:25:07.358Z,15.79
2016-04-28T00:26:07.204Z,16.04
2016-04-28T00:27:07.317Z,16.05
2016-04-28T00:28:07.319Z,16.02
2016-04-28T00:29:07.290Z,16.08
2016-04-28T00:30:07.294Z,15.95
2016-04-28T00:31:07.249Z,15.7
2016-04-28T00:32:07.252Z,15.73
2016-04-28T00:33:07.222Z,15.84
2016-04-28T00:34:07.210Z,15.65
2016-04-28T00:35:07.182Z,15.54
2016-04-28T00:36:07.168Z,15.62
2016-04-28T00:37:07.155Z,15.55
2016-04-28T00:38:07.143Z,15.43
2016-04-28T00:39:07.114Z,15.59
2016-04-28T00:40:07.148Z,15.44
2016-04-28T00:41:09.901Z,15.42
2016-04-28T00:42:07.075Z,15.52
2016-04-28T00:43:07.063Z,15.58
2016-04-28T00:44:07.049Z,15.75
2016-04-28T00:45:07.021Z,15.94
2016-04-28T00:46:07.007Z,15.9
2016-04-28T00:47:06.979Z,15.7
2016-04-28T00:48:06.982Z,15.58
2016-04-28T00:49:06.969Z,15.68
2016-04-28T00:50:06.940Z,15.7
2016-04-28T00:51:06.928Z,15.82
2016-04-28T00:52:06.915Z,15.95
2016-04-28T00:53:06.917Z,15.84
2016-04-28T00:54:06.889Z,15.76
2016-04-28T00:55:06.861Z,15.77
2016-04-28T00:56:07.644Z,15.94
2016-04-28T00:57:06.819Z,15.95
2016-04-28T00:58:06.822Z,15.97
2016-04-28T00:59:06.792Z,15.97
2016-04-28T01:00:06.780Z,16.05
2016-04-28T01:01:06.752Z,15.94
2016-04-28T01:02:06.738Z,16.04
2016-04-28T01:03:06.741Z,15.68
2016-04-28T01:04:06.697Z,15.72
2016-04-28T01:05:06.684Z,15.72
2016-04-28T01:06:06.671Z,15.61
2016-04-28T01:07:06.658Z,15.65
2016-04-28T01:08:06.629Z,15.58
2016-04-28T01:09:06.616Z,15.84
2016-04-28T01:10:06.604Z,15.73
2016-04-28T01:11:07.528Z,15.52
2016-04-28T01:12:06.843Z,15.37
2016-04-28T01:13:06.565Z,15.51
2016-04-28T01:14:06.380Z,15.43
2016-04-28T01:15:06.523Z,15.35
2016-04-28T01:16:06.495Z,15.39
2016-04-28T01:17:06.482Z,15.52
2016-04-28T01:18:06.469Z,15.35
2016-04-28T01:19:06.471Z,15.33
2016-04-28T01:20:06.428Z,15.49
2016-04-28T01:21:06.430Z,15.58
2016-04-28T01:22:06.386Z,15.59
2016-04-28T01:23:06.373Z,15.55
2016-04-28T01:24:06.375Z,15.58
2016-04-28T01:25:06.362Z,15.73
2016-04-28T01:26:06.381Z,15.82
2016-04-28T01:27:06.337Z,15.8
2016-04-28T01:28:06.308Z,15.76
2016-04-28T01:29:06.280Z,15.79
2016-04-28T01:30:06.267Z,15.79
2016-04-28T01:31:06.270Z,15.73
2016-04-28T01:32:06.241Z,15.7
2016-04-28T01:33:06.212Z,15.67
2016-04-28T01:34:06.199Z,15.49
2016-04-28T01:35:06.186Z,15.36
2016-04-28T01:36:06.158Z,15.55
2016-04-28T01:37:06.144Z,15.54
2016-04-28T01:38:06.117Z,15.61
2016-04-28T01:39:06.119Z,15.52
2016-04-28T01:40:06.091Z,15.43
2016-04-28T01:41:06.952Z,15.29
2016-04-28T01:42:05.908Z,15.14
2016-04-28T01:43:06.052Z,15.36
2016-04-28T01:44:06.024Z,15.49
2016-04-28T01:45:06.026Z,15.54
2016-04-28T01:46:05.997Z,15.49
2016-04-28T01:47:05.985Z,15.44
2016-04-28T01:48:05.956Z,15.49
2016-04-28T01:49:05.959Z,15.52
2016-04-28T01:50:05.945Z,15.46
2016-04-28T01:51:05.918Z,15.28
2016-04-28T01:52:05.889Z,15.31
2016-04-28T01:53:05.875Z,15.37
2016-04-28T01:54:05.863Z,15.47
2016-04-28T01:55:05.865Z,15.29
2016-04-28T01:56:05.868Z,15.28
2016-04-28T01:57:05.839Z,15.36
2016-04-28T01:58:05.795Z,15.25
2016-04-28T01:59:05.782Z,15.35
2016-04-28T02:00:05.739Z,15.27
2016-04-28T02:01:05.741Z,15.22
2016-04-28T02:02:05.727Z,15.09
2016-04-28T02:03:05.700Z,15.18
2016-04-28T02:04:05.686Z,15.18
2016-04-28T02:05:05.674Z,15.19
2016-04-28T02:06:05.644Z,15.43
2016-04-28T02:07:05.632Z,15.21
2016-04-28T02:08:05.619Z,15.33
2016-04-28T02:09:05.638Z,15.15
2016-04-28T02:10:05.593Z,14.92
2016-04-28T02:11:05.861Z,15
2016-04-28T02:12:05.552Z,15.07
2016-04-28T02:13:05.523Z,15.03
2016-04-28T02:14:05.510Z,15.28
2016-04-28T02:15:05.496Z,15.17
2016-04-28T02:16:05.516Z,15.21
2016-04-28T02:17:05.471Z,15.27
2016-04-28T02:18:05.443Z,15.14
2016-04-28T02:19:05.430Z,15.11
2016-04-28T02:20:05.417Z,15.18
2016-04-28T02:21:05.420Z,14.88
2016-04-28T02:22:05.219Z,15.1
2016-04-28T02:23:05.384Z,15.09
2016-04-28T02:24:05.199Z,15.09
2016-04-28T02:25:05.327Z,14.92
2016-04-28T02:26:06.767Z,14.92
2016-04-28T02:27:05.707Z,14.97
2016-04-28T02:28:05.287Z,14.99
2016-04-28T02:29:05.260Z,15.19
2016-04-28T02:30:05.246Z,15.07
2016-04-28T02:31:05.218Z,15.22
2016-04-28T02:32:05.205Z,15.22
2016-04-28T02:33:05.192Z,15.04
2016-04-28T02:34:05.179Z,14.86
2016-04-28T02:35:05.150Z,14.88
2016-04-28T02:36:05.138Z,14.85
2016-04-28T02:37:05.125Z,14.91
2016-04-28T02:38:05.097Z,14.84
2016-04-28T02:39:05.083Z,14.86
2016-04-28T02:40:05.069Z,14.6
2016-04-28T02:41:05.636Z,14.81
2016-04-28T02:42:05.873Z,14.92
2016-04-28T02:43:05.031Z,14.96
2016-04-28T02:44:04.987Z,15.04
2016-04-28T02:45:04.991Z,14.84
2016-04-28T02:46:04.977Z,14.89
2016-04-28T02:47:04.949Z,14.91
2016-04-28T02:48:04.951Z,14.78
2016-04-28T02:49:04.939Z,14.66
2016-04-28T02:50:04.894Z,14.62
2016-04-28T02:51:04.881Z,14.66
2016-04-28T02:52:04.884Z,14.86
2016-04-28T02:53:04.854Z,14.94
2016-04-28T02:54:04.843Z,14.91
2016-04-28T02:55:04.829Z,14.84
2016-04-28T02:56:06.270Z,14.6
2016-04-28T02:57:07.132Z,14.5
2016-04-28T02:58:04.775Z,14.69
2016-04-28T02:59:04.746Z,14.79
2016-04-28T03:00:04.748Z,14.66
2016-04-28T03:01:04.705Z,14.69
2016-04-28T03:02:04.551Z,14.65
2016-04-28T03:03:04.523Z,14.66
2016-04-28T03:04:04.666Z,14.69
2016-04-28T03:05:04.637Z,14.85
2016-04-28T03:06:04.625Z,14.88
2016-04-28T03:07:04.595Z,14.86
2016-04-28T03:08:04.598Z,14.86
2016-04-28T03:09:04.570Z,14.88
2016-04-28T03:10:04.558Z,14.94
2016-04-28T03:11:05.997Z,14.89
2016-04-28T03:12:04.797Z,14.92
2016-04-28T03:13:04.519Z,14.73
2016-04-28T03:14:04.489Z,14.82
2016-04-28T03:15:04.492Z,14.96
2016-04-28T03:16:04.480Z,14.97
2016-04-28T03:17:04.419Z,14.68
2016-04-28T03:18:04.407Z,14.7
2016-04-28T03:19:04.378Z,14.62
2016-04-28T03:20:04.380Z,14.54
2016-04-28T03:21:04.352Z,14.51
2016-04-28T03:22:04.355Z,14.59
2016-04-28T03:23:04.311Z,14.79
2016-04-28T03:24:04.313Z,14.85
2016-04-28T03:25:04.285Z,14.96
2016-04-28T03:26:04.272Z,15
2016-04-28T03:27:06.431Z,14.99
2016-04-28T03:28:04.246Z,14.88
2016-04-28T03:29:04.217Z,15.03
2016-04-28T03:30:04.205Z,15.1
2016-04-28T03:31:04.192Z,14.84
2016-04-28T03:32:04.163Z,14.92
2016-04-28T03:33:04.150Z,14.58
2016-04-28T03:34:04.137Z,14.7
2016-04-28T03:35:04.109Z,14.88
2016-04-28T03:36:04.095Z,14.92
2016-04-28T03:37:04.083Z,14.94
2016-04-28T03:38:03.914Z,14.96
2016-04-28T03:39:04.057Z,15.03
2016-04-28T03:40:04.028Z,15.22
2016-04-28T03:41:03.968Z,15.24
2016-04-28T03:42:04.003Z,15.39
2016-04-28T03:43:03.974Z,15.25
2016-04-28T03:44:03.961Z,15.37
2016-04-28T03:45:03.947Z,15.39
2016-04-28T03:46:03.920Z,15.28
2016-04-28T03:47:03.907Z,15.39
2016-04-28T03:48:03.893Z,15.19
2016-04-28T03:49:03.881Z,15.31
2016-04-28T03:50:03.868Z,15.19
2016-04-28T03:51:03.855Z,15.39
2016-04-28T03:52:03.841Z,15.02
2016-04-28T03:53:03.798Z,15.09
2016-04-28T03:54:03.785Z,14.97
2016-04-28T03:55:03.771Z,15.21
2016-04-28T03:56:03.743Z,15.25
2016-04-28T03:57:04.434Z,15.18
2016-04-28T03:58:03.733Z,15.25
2016-04-28T03:59:03.704Z,15.36
2016-04-28T04:00:03.692Z,15.57
2016-04-28T04:01:03.663Z,15.64
2016-04-28T04:02:03.651Z,15.58
2016-04-28T04:03:03.700Z,15.58
2016-04-28T04:04:03.609Z,15.33
2016-04-28T04:05:03.612Z,15.03
2016-04-28T04:06:03.583Z,15.1
2016-04-28T04:07:03.570Z,15.33
2016-04-28T04:08:03.556Z,14.96
2016-04-28T04:09:03.544Z,15
2016-04-28T04:10:03.515Z,15.17
2016-04-28T04:11:03.815Z,15.21
2016-04-28T04:12:03.317Z,15.27
2016-04-28T04:13:03.477Z,15.07
2016-04-28T04:14:03.464Z,15.1
2016-04-28T04:15:03.450Z,14.84
2016-04-28T04:16:03.406Z,14.79
2016-04-28T04:17:03.253Z,14.78
2016-04-28T04:18:03.397Z,14.7
2016-04-28T04:19:03.383Z,14.85
2016-04-28T04:20:03.338Z,14.85
2016-04-28T04:21:03.327Z,14.82
2016-04-28T04:22:03.157Z,14.59
2016-04-28T04:23:03.316Z,14.89
2016-04-28T04:24:03.271Z,14.88
2016-04-28T04:25:03.260Z,14.79
2016-04-28T04:26:03.137Z,14.82
2016-04-28T04:27:03.311Z,14.91
2016-04-28T04:28:03.188Z,14.92
2016-04-28T04:29:03.191Z,14.73
2016-04-28T04:30:03.163Z,14.82
2016-04-28T04:31:03.165Z,14.91
2016-04-28T04:32:03.137Z,14.99
2016-04-28T04:33:03.109Z,15
2016-04-28T04:34:03.111Z,15.03
2016-04-28T04:35:03.082Z,14.85
2016-04-28T04:36:03.069Z,14.69
2016-04-28T04:37:03.057Z,14.6
2016-04-28T04:38:03.012Z,14.7
2016-04-28T04:39:03.015Z,14.69
2016-04-28T04:40:03.003Z,14.72
2016-04-28T04:41:03.005Z,14.79
2016-04-28T04:42:02.945Z,14.54
2016-04-28T04:43:02.947Z,14.55
2016-04-28T04:44:02.935Z,14.55
2016-04-28T04:45:02.906Z,14.58
2016-04-28T04:46:02.894Z,14.7
2016-04-28T04:47:02.864Z,14.47
2016-04-28T04:48:02.867Z,14.45
2016-04-28T04:49:02.855Z,14.68
2016-04-28T04:50:02.826Z,14.88
2016-04-28T04:51:02.813Z,14.91
2016-04-28T04:52:02.785Z,15.04
2016-04-28T04:53:02.616Z,15.11
2016-04-28T04:54:02.758Z,15.22
2016-04-28T04:55:02.730Z,15.35
2016-04-28T04:56:03.186Z,15.33
2016-04-28T04:57:02.704Z,15.39
2016-04-28T04:58:02.691Z,15.36
2016-04-28T04:59:02.693Z,15.37
2016-04-28T05:00:02.650Z,15.39
2016-04-28T05:01:02.668Z,15.36
2016-04-28T05:02:02.624Z,15.36
2016-04-28T05:03:02.611Z,15.39
2016-04-28T05:04:02.582Z,15.37
2016-04-28T05:05:02.554Z,15.39
2016-04-28T05:06:02.540Z,15.24
2016-04-28T05:07:02.543Z,15.33
2016-04-28T05:08:02.515Z,15.35
2016-04-28T05:09:02.487Z,15.4
2016-04-28T05:10:02.489Z,15.37
2016-04-28T05:11:02.460Z,15.42
2016-04-28T05:12:02.447Z,15.27
2016-04-28T05:13:02.420Z,15.39
2016-04-28T05:14:02.422Z,15.42
2016-04-28T05:15:02.393Z,15.33
2016-04-28T05:16:02.365Z,15.21
2016-04-28T05:17:02.352Z,15.02
2016-04-28T05:18:02.339Z,15.04
2016-04-28T05:19:02.325Z,14.81
2016-04-28T05:20:02.298Z,14.79
2016-04-28T05:21:02.299Z,14.99
2016-04-28T05:22:02.288Z,15.1
2016-04-28T05:23:02.243Z,14.59
2016-04-28T05:24:02.229Z,14.7
2016-04-28T05:25:02.216Z,14.81
2016-04-28T05:26:02.189Z,14.99
2016-04-28T05:27:02.785Z,15.03
2016-04-28T05:28:02.162Z,14.91
2016-04-28T05:29:02.150Z,14.89
2016-04-28T05:30:02.137Z,14.92
2016-04-28T05:31:02.108Z,14.86
2016-04-28T05:32:02.095Z,15.04
2016-04-28T05:33:02.083Z,14.92
2016-04-28T05:34:02.069Z,14.88
2016-04-28T05:35:02.057Z,15.02
2016-04-28T05:36:02.028Z,14.85
2016-04-28T05:37:02.014Z,14.96
2016-04-28T05:38:02.001Z,14.82
2016-04-28T05:39:01.974Z,14.85
2016-04-28T05:40:01.976Z,14.88
2016-04-28T05:41:01.947Z,14.86
2016-04-28T05:42:01.934Z,14.81
2016-04-28T05:43:01.906Z,14.94
2016-04-28T05:44:01.909Z,14.82
2016-04-28T05:45:01.865Z,14.88
2016-04-28T05:46:01.852Z,14.88
2016-04-28T05:47:01.822Z,14.88
2016-04-28T05:48:01.811Z,15
2016-04-28T05:49:01.797Z,14.96
2016-04-28T05:50:01.784Z,14.92
2016-04-28T05:51:01.755Z,14.85
2016-04-28T05:52:01.744Z,14.91
2016-04-28T05:53:01.730Z,14.89
2016-04-28T05:54:01.717Z,14.97
2016-04-28T05:55:01.704Z,14.84
2016-04-28T05:56:01.675Z,14.89
2016-04-28T05:57:01.366Z,15.02
2016-04-28T05:58:01.649Z,14.85
2016-04-28T05:59:01.621Z,14.7
2016-04-28T06:00:01.608Z,14.68
2016-04-28T06:01:01.616Z,14.81
2016-04-28T06:02:01.613Z,14.86
2016-04-28T06:03:01.641Z,14.91
2016-04-28T06:04:01.668Z,14.88
2016-04-28T06:05:01.697Z,15
2016-04-28T06:06:01.704Z,15.03
2016-04-28T06:07:01.721Z,14.92
2016-04-28T06:08:01.708Z,15.02
2016-04-28T06:09:01.695Z,15.03
2016-04-28T06:10:01.711Z,15.18
2016-04-28T06:11:01.712Z,15.1
2016-04-28T06:12:01.375Z,15.03
2016-04-28T06:13:01.665Z,14.82
2016-04-28T06:14:01.672Z,15
2016-04-28T06:15:01.649Z,15
2016-04-28T06:16:01.640Z,15.02
2016-04-28T06:17:01.645Z,15.17
2016-04-28T06:18:01.602Z,15.06
2016-04-28T06:19:01.591Z,14.92
2016-04-28T06:20:01.581Z,14.99
2016-04-28T06:21:01.569Z,15.09
2016-04-28T06:22:00.761Z,15.03
2016-04-28T06:23:01.529Z,15.03
2016-04-28T06:24:01.501Z,15.09
2016-04-28T06:25:01.489Z,15.11
2016-04-28T06:26:01.478Z,15.15
2016-04-28T06:27:01.464Z,15.24
2016-04-28T06:28:01.437Z,14.99
2016-04-28T06:29:01.423Z,14.97
2016-04-28T06:30:01.412Z,15.07
2016-04-28T06:31:01.383Z,15.17
2016-04-28T06:32:01.354Z,15.18
2016-04-28T06:33:01.358Z,15.21
2016-04-28T06:34:01.329Z,15.22
2016-04-28T06:35:01.316Z,15.03
2016-04-28T06:36:01.319Z,14.96
2016-04-28T06:37:01.290Z,14.88
2016-04-28T06:38:01.276Z,14.94
2016-04-28T06:39:01.264Z,14.97
2016-04-28T06:40:01.235Z,15.07
2016-04-28T06:41:01.223Z,14.88
2016-04-28T06:42:01.272Z,15.09
2016-04-28T06:43:01.181Z,15.03
2016-04-28T06:44:01.168Z,15.07
2016-04-28T06:45:01.155Z,14.97
2016-04-28T06:46:01.142Z,15.07
2016-04-28T06:47:00.364Z,15.09
2016-04-28T06:48:01.086Z,15.07
2016-04-28T06:49:01.088Z,15.11
2016-04-28T06:50:01.075Z,15.24
2016-04-28T06:51:01.046Z,15.39
2016-04-28T06:52:01.050Z,15.25
2016-04-28T06:53:01.005Z,15.33
2016-04-28T06:54:00.992Z,15.58
2016-04-28T06:55:00.979Z,15.55
2016-04-28T06:56:00.950Z,15.54
2016-04-28T06:57:02.125Z,15.55
2016-04-28T06:58:00.924Z,15.55
2016-04-28T06:59:00.740Z,15.58
2016-04-28T07:00:00.898Z,15.8
2016-04-28T07:01:00.885Z,15.37
2016-04-28T07:02:00.842Z,15.39
2016-04-28T07:03:00.844Z,15.52
2016-04-28T07:04:00.815Z,15.68
2016-04-28T07:05:00.803Z,15.72
2016-04-28T07:06:00.790Z,15.76
2016-04-28T07:07:00.776Z,15.68
2016-04-28T07:08:00.764Z,15.88
2016-04-28T07:09:00.735Z,15.91
2016-04-28T07:10:00.722Z,15.62
2016-04-28T07:11:00.694Z,15.51
2016-04-28T07:12:01.650Z,15.33
2016-04-28T07:13:02.106Z,15.49
2016-04-28T07:14:00.656Z,15.28
2016-04-28T07:15:00.626Z,15.39
2016-04-28T07:16:00.614Z,15.55
2016-04-28T07:17:00.600Z,15.44
2016-04-28T07:18:00.587Z,15.52
2016-04-28T07:19:00.575Z,15.37
2016-04-28T07:20:00.546Z,15.42
2016-04-28T07:21:00.533Z,15.14
2016-04-28T07:22:00.520Z,15.19
2016-04-28T07:23:00.509Z,15.37
2016-04-28T07:24:00.480Z,15.37
2016-04-28T07:25:00.467Z,15.19
2016-04-28T07:26:00.454Z,15.11
2016-04-28T07:27:00.520Z,14.96
2016-04-28T07:28:01.131Z,15.22
2016-04-28T07:29:00.399Z,15.03
2016-04-28T07:30:00.386Z,15.15
2016-04-28T07:31:00.373Z,15.18
2016-04-28T07:32:00.361Z,15.28
2016-04-28T07:33:00.333Z,15.19
2016-04-28T07:34:00.304Z,15.39
2016-04-28T07:35:00.306Z,15.39
2016-04-28T07:36:00.278Z,15.55
2016-04-28T07:37:00.264Z,15.33
2016-04-28T07:38:00.236Z,15.36
2016-04-28T07:39:00.254Z,15.42
2016-04-28T07:40:00.210Z,15.36
2016-04-28T07:41:00.197Z,15.4
2016-04-28T07:42:00.357Z,15.39
2016-04-28T07:43:00.015Z,15.47
2016-04-28T07:44:00.158Z,15.37
2016-04-28T07:45:00.583Z,15.42
2016-04-28T07:46:00.102Z,15.52
2016-04-28T07:47:00.089Z,15.73
2016-04-28T07:48:00.076Z,15.59
2016-04-28T07:49:00.062Z,15.62
2016-04-28T07:50:00.049Z,15.7
2016-04-28T07:51:00.052Z,15.7
2016-04-28T07:52:00.008Z,15.55
2016-04-28T07:52:59.979Z,15.68
2016-04-28T07:53:59.982Z,15.8
2016-04-28T07:55:00.126Z,15.65
2016-04-28T07:55:59.957Z,15.58
2016-04-28T07:56:59.788Z,15.7
2016-04-28T07:58:01.540Z,15.68
2016-04-28T07:58:59.903Z,15.82
2016-04-28T07:59:59.873Z,15.94
2016-04-28T08:00:59.861Z,15.77
2016-04-28T08:01:59.832Z,15.83
2016-04-28T08:03:00.256Z,15.88
2016-04-28T08:04:00.041Z,16
2016-04-28T08:04:59.808Z,15.88
2016-04-28T08:05:59.780Z,15.65
2016-04-28T08:06:59.689Z,15.67
2016-04-28T08:07:59.579Z,15.82
2016-04-28T08:08:59.706Z,16.09
2016-04-28T08:09:59.693Z,15.67
2016-04-28T08:10:59.681Z,15.91
2016-04-28T08:12:02.433Z,16.1
2016-04-28T08:12:59.779Z,16.33
2016-04-28T08:13:59.609Z,16.09
2016-04-28T08:14:59.598Z,16.02
2016-04-28T08:15:59.444Z,16
2016-04-28T08:16:59.572Z,15.86
2016-04-28T08:17:59.559Z,15.73
2016-04-28T08:18:59.562Z,16.05
2016-04-28T08:19:59.517Z,15.7
2016-04-28T08:20:59.488Z,15.64
2016-04-28T08:21:59.491Z,15.7
2016-04-28T08:22:59.478Z,15.9
2016-04-28T08:23:59.450Z,15.8
2016-04-28T08:24:59.436Z,15.46
2016-04-28T08:25:59.424Z,15.62
2016-04-28T08:27:00.380Z,15.84
2016-04-28T08:27:59.289Z,16.05
2016-04-28T08:28:59.370Z,15.79
2016-04-28T08:29:59.357Z,15.72
2016-04-28T08:30:59.328Z,15.57
2016-04-28T08:31:59.330Z,15.83
2016-04-28T08:32:59.302Z,15.75
2016-04-28T08:33:59.289Z,15.79
2016-04-28T08:34:59.276Z,15.86
2016-04-28T08:35:59.263Z,16.04
2016-04-28T08:36:59.235Z,15.9
2016-04-28T08:37:59.206Z,15.92
2016-04-28T08:38:59.209Z,16.01
2016-04-28T08:39:59.195Z,16.09
2016-04-28T08:40:59.183Z,16
2016-04-28T08:42:02.202Z,16.17
2016-04-28T08:43:00.095Z,16.41
2016-04-28T08:43:59.113Z,16.36
2016-04-28T08:44:59.115Z,16.21
2016-04-28T08:45:59.118Z,16.21
2016-04-28T08:46:59.074Z,16.08
2016-04-28T08:47:59.076Z,16.13
2016-04-28T08:48:59.033Z,15.88
2016-04-28T08:49:59.036Z,15.8
2016-04-28T08:50:59.007Z,15.9
2016-04-28T08:51:58.978Z,15.68
2016-04-28T08:52:58.965Z,15.61
2016-04-28T08:53:58.952Z,15.72
2016-04-28T08:54:58.939Z,15.59
2016-04-28T08:55:58.927Z,15.7
2016-04-28T08:56:58.633Z,15.76
2016-04-28T08:57:58.807Z,15.59
2016-04-28T08:58:58.888Z,15.77
2016-04-28T08:59:58.843Z,15.7
2016-04-28T09:01:02.049Z,15.8
2016-04-28T09:01:58.818Z,15.91
2016-04-28T09:02:58.852Z,15.95
2016-04-28T09:03:58.777Z,16.16
2016-04-28T09:04:58.794Z,16.05
2016-04-28T09:05:58.750Z,15.92
2016-04-28T09:06:58.738Z,16.1
2016-04-28T09:07:58.740Z,15.86
2016-04-28T09:08:58.727Z,16.02
2016-04-28T09:09:58.698Z,16.15
2016-04-28T09:10:58.732Z,16.26
2016-04-28T09:11:58.532Z,16.09
2016-04-28T09:12:58.535Z,16.12
2016-04-28T09:13:58.632Z,16.1
2016-04-28T09:14:58.603Z,16.2
2016-04-28T09:15:58.590Z,16.29
2016-04-28T09:16:58.592Z,16.17
2016-04-28T09:17:58.611Z,16.16
2016-04-28T09:18:58.614Z,16.28
2016-04-28T09:19:58.537Z,16.08
2016-04-28T09:20:58.525Z,16.21
2016-04-28T09:21:59.622Z,16.49
2016-04-28T09:22:58.483Z,16.58
2016-04-28T09:23:58.486Z,16.42
2016-04-28T09:24:58.442Z,16.56
2016-04-28T09:25:58.429Z,16.58
2016-04-28T09:27:01.463Z,16.53
2016-04-28T09:28:00.013Z,16.56
2016-04-28T09:29:00.343Z,16.56
2016-04-28T09:29:58.377Z,16.83
2016-04-28T09:30:58.348Z,16.64
2016-04-28T09:31:58.382Z,16.54
2016-04-28T09:32:58.323Z,16.76
2016-04-28T09:33:58.310Z,17.12
2016-04-28T09:34:59.343Z,17.24
2016-04-28T09:35:58.284Z,16.87
2016-04-28T09:36:58.599Z,16.97
2016-04-28T09:37:58.243Z,16.72
2016-04-28T09:38:58.213Z,16.72
2016-04-28T09:39:58.185Z,16.97
2016-04-28T09:40:58.172Z,16.9
2016-04-28T09:41:58.175Z,17.02
2016-04-28T09:42:58.772Z,16.83
2016-04-28T09:43:58.165Z,16.9
2016-04-28T09:44:58.137Z,17.08
2016-04-28T09:45:58.107Z,17.2
2016-04-28T09:46:58.079Z,17.36
2016-04-28T09:47:58.066Z,17.29
2016-04-28T09:48:58.053Z,17.31
2016-04-28T09:49:58.025Z,17.31
2016-04-28T09:50:58.012Z,17.42
2016-04-28T09:51:58.014Z,17.59
2016-04-28T09:52:57.798Z,17.85
2016-04-28T09:53:57.989Z,17.48
2016-04-28T09:54:57.975Z,17.56
2016-04-28T09:55:57.963Z,17.68
2016-04-28T09:56:57.636Z,17.27
2016-04-28T09:57:58.046Z,16.96
2016-04-28T09:58:57.908Z,17.22
2016-04-28T09:59:57.864Z,17.26
2016-04-28T10:00:57.852Z,17.49
2016-04-28T10:01:57.869Z,17.94
2016-04-28T10:02:57.841Z,18.16
2016-04-28T10:03:57.797Z,18.13
2016-04-28T10:04:57.799Z,18.18
2016-04-28T10:05:57.630Z,18.33
2016-04-28T10:06:57.774Z,18.05
2016-04-28T10:07:57.730Z,18.22
2016-04-28T10:08:57.733Z,18.01
2016-04-28T10:09:57.719Z,17.65
2016-04-28T10:10:57.707Z,17.92
2016-04-28T10:12:00.897Z,17.78
2016-04-28T10:12:57.461Z,18.1
2016-04-28T10:13:57.682Z,18.22
2016-04-28T10:14:57.640Z,18.47
2016-04-28T10:15:57.626Z,17.89
2016-04-28T10:16:57.612Z,17.72
2016-04-28T10:17:57.600Z,18.05
2016-04-28T10:18:57.571Z,18.13
2016-04-28T10:19:57.558Z,18.1
2016-04-28T10:20:57.562Z,18.33
2016-04-28T10:21:57.533Z,18.5
2016-04-28T10:22:59.129Z,18.66
2016-04-28T10:23:57.538Z,18.78
2016-04-28T10:24:57.495Z,18.86
2016-04-28T10:25:57.481Z,17.89
2016-04-28T10:26:58.047Z,17.79
2016-04-28T10:27:57.486Z,17.38
2016-04-28T10:28:57.427Z,17.3
2016-04-28T10:29:57.414Z,17.8
2016-04-28T10:30:57.400Z,18.18
2016-04-28T10:31:57.435Z,18.65
2016-04-28T10:32:57.391Z,18.74
2016-04-28T10:33:57.393Z,19.07
2016-04-28T10:34:57.396Z,19.18
2016-04-28T10:35:57.336Z,19.4
2016-04-28T10:36:57.339Z,19.76
2016-04-28T10:37:57.311Z,19.99
2016-04-28T10:38:57.296Z,20.24
2016-04-28T10:39:57.284Z,19.7
2016-04-28T10:40:57.271Z,20.02
2016-04-28T10:41:58.196Z,20.26
2016-04-28T10:42:57.229Z,20.21
2016-04-28T10:43:57.217Z,20.66
2016-04-28T10:44:57.204Z,20.82
2016-04-28T10:45:57.191Z,20.26
2016-04-28T10:46:57.179Z,19.55
2016-04-28T10:47:57.009Z,20.1
2016-04-28T10:48:57.152Z,20.37
2016-04-28T10:49:57.124Z,20
2016-04-28T10:50:57.142Z,19.89
2016-04-28T10:51:57.098Z,19.64
2016-04-28T10:52:57.084Z,19.27
2016-04-28T10:53:57.103Z,18.6
2016-04-28T10:54:57.075Z,18.95
2016-04-28T10:55:57.062Z,18.81
2016-04-28T10:56:57.330Z,19.12
2016-04-28T10:57:56.739Z,20.24
2016-04-28T10:58:57.039Z,19.84
2016-04-28T10:59:57.010Z,19.48
2016-04-28T11:00:56.981Z,19.24
2016-04-28T11:01:56.969Z,21.07
2016-04-28T11:02:56.956Z,22.94
2016-04-28T11:03:56.942Z,21.52
2016-04-28T11:04:56.961Z,23.92
2016-04-28T11:05:56.916Z,26.26
2016-04-28T11:06:56.919Z,26.4
2016-04-28T11:07:56.922Z,27.63
2016-04-28T11:08:56.893Z,28.01
2016-04-28T11:09:56.865Z,28.07
2016-04-28T11:10:56.868Z,25.47
2016-04-28T11:11:56.714Z,25.55
2016-04-28T11:12:56.545Z,27.58
2016-04-28T11:13:56.844Z,25.63
2016-04-28T11:14:56.816Z,26.19
2016-04-28T11:15:56.834Z,25.9
2016-04-28T11:16:56.806Z,26.89
2016-04-28T11:17:56.824Z,26.15
2016-04-28T11:18:56.811Z,28.78
2016-04-28T11:19:56.814Z,28.02
2016-04-28T11:20:56.794Z,27.54
2016-04-28T11:21:56.798Z,25.01
2016-04-28T11:22:56.801Z,24.38
2016-04-28T11:23:56.772Z,24.16
2016-04-28T11:24:56.806Z,25.51
2016-04-28T11:25:56.777Z,27.15
2016-04-28T11:26:56.874Z,26.73
2016-04-28T11:27:58.283Z,27.58
2016-04-28T11:28:56.738Z,30.53
2016-04-28T11:29:57.210Z,31.12
2016-04-28T11:30:56.743Z,28.32
2016-04-28T11:31:56.888Z,28.82
2016-04-28T11:32:56.734Z,29.69
2016-04-28T11:33:56.721Z,29.16
2016-04-28T11:34:57.066Z,24.24
2016-04-28T11:35:56.726Z,25.43
2016-04-28T11:36:56.712Z,24.63
2016-04-28T11:37:56.715Z,25.26
2016-04-28T11:38:56.702Z,27.45
2016-04-28T11:39:56.705Z,29.34
2016-04-28T11:40:56.708Z,31.18
2016-04-28T11:41:57.835Z,27.17
2016-04-28T11:42:57.417Z,29.34
2016-04-28T11:43:56.701Z,31.7
2016-04-28T11:44:56.704Z,28.38
2016-04-28T11:45:56.721Z,28.69
2016-04-28T11:46:56.584Z,25.58
2016-04-28T11:47:56.696Z,25.1
2016-04-28T11:48:56.729Z,26.25
2016-04-28T11:49:56.686Z,26.16
2016-04-28T11:50:56.689Z,26.89
2016-04-28T11:51:56.692Z,28.94
2016-04-28T11:52:56.694Z,29.44
2016-04-28T11:53:56.711Z,27.89
2016-04-28T11:54:56.683Z,28.59
2016-04-28T11:55:56.686Z,28.6
2016-04-28T11:56:56.689Z,30.05
2016-04-28T11:57:56.379Z,29.29
2016-04-28T11:58:56.772Z,27.21
2016-04-28T11:59:56.681Z,26.37
2016-04-28T12:00:56.669Z,26.6
2016-04-28T12:01:56.702Z,27.87
2016-04-28T12:02:56.689Z,29.04
2016-04-28T12:05:11.522Z,29.04
2016-04-28T12:05:56.666Z,30.34
2016-04-28T12:06:56.653Z,31.76
2016-04-28T12:07:56.890Z,28.6
2016-04-28T12:08:56.721Z,26.75
2016-04-28T12:09:56.676Z,28.64
2016-04-28T12:10:56.742Z,29.87
2016-04-28T12:11:56.682Z,28.19
2016-04-28T12:12:56.357Z,24.95
2016-04-28T12:13:56.671Z,26.05
2016-04-28T12:14:56.659Z,26.26
2016-04-28T12:15:56.646Z,26.73
2016-04-28T12:16:56.649Z,28.02
2016-04-28T12:17:56.667Z,29.86
2016-04-28T12:18:56.639Z,28.27
2016-04-28T12:19:56.657Z,28.22
2016-04-28T12:20:56.645Z,31.12
2016-04-28T12:21:56.693Z,31.99
2016-04-28T12:22:56.650Z,34.6
2016-04-28T12:23:56.667Z,36.31
2016-04-28T12:24:56.670Z,37.2
2016-04-28T12:25:56.657Z,38.36
2016-04-28T12:26:56.644Z,34.75
2016-04-28T12:27:56.522Z,35.29
2016-04-28T12:28:56.666Z,35.22
2016-04-28T12:29:56.684Z,31.84
2016-04-28T12:30:56.671Z,30
2016-04-28T12:31:56.658Z,32.75
2016-04-28T12:32:56.677Z,34.29
2016-04-28T12:33:56.664Z,35.08
2016-04-28T12:34:56.696Z,33.76
2016-04-28T12:35:56.668Z,35.18
2016-04-28T12:36:56.749Z,29.9
2016-04-28T12:37:56.705Z,29.31
2016-04-28T12:38:56.677Z,30.09
2016-04-28T12:39:56.680Z,31.66
2016-04-28T12:40:56.666Z,30.73
2016-04-28T12:41:56.747Z,31.56
2016-04-28T12:43:00.438Z,29.61
2016-04-28T12:44:00.691Z,30.48
2016-04-28T12:44:59.083Z,29.95
2016-04-28T12:45:56.679Z,30.06
2016-04-28T12:46:57.182Z,28.48
2016-04-28T12:47:56.701Z,30.78
2016-04-28T12:48:56.703Z,30.62
2016-04-28T12:49:56.706Z,29.97
2016-04-28T12:50:56.693Z,27.75
2016-04-28T12:51:56.696Z,29.17
2016-04-28T12:52:56.776Z,25.84
2016-04-28T12:53:56.701Z,27.98
2016-04-28T12:54:56.923Z,27.92
2016-04-28T12:55:56.722Z,28.97
2016-04-28T12:56:56.850Z,29.63